Time;durP1;ratioP1;P1;durP2;ratioP2;P2;SDS_P1;SDS_P2;PMS_P1;PMS_P2;Temp;Humidity;BMP_temperature;BMP_pressure;BME280_temperature;BME280_humidity;BME280_pressure;Samples;Min_cycle;Max_cycle;Signal;HPM_P1;HPM_P2
2022/09/26 00:00:52;;;;;;;0.80;0.80;;;13.60;99.90;;;;;;4996997;28;20197;-65
2022/09/26 00:03:20;;;;;;;1.40;0.90;;;13.60;99.90;;;;;;4996588;28;20222;-66
2022/09/26 00:05:47;;;;;;;0.90;0.77;;;13.60;99.90;;;;;;4997486;28;20561;-66
2022/09/26 00:08:13;;;;;;;0.90;0.90;;;13.60;99.90;;;;;;4996998;28;20210;-65
2022/09/26 00:10:40;;;;;;;1.17;0.80;;;13.60;99.90;;;;;;5002032;28;20236;-66
2022/09/26 00:13:07;;;;;;;0.90;0.90;;;13.60;99.90;;;;;;5029395;28;20719;-65
2022/09/26 00:15:34;;;;;;;0.90;0.90;;;13.50;99.90;;;;;;5020236;28;20232;-65
2022/09/26 00:18:01;;;;;;;0.90;0.90;;;13.50;99.90;;;;;;5025968;28;20201;-65
2022/09/26 00:20:29;;;;;;;1.00;1.00;;;13.50;99.90;;;;;;5022997;28;20648;-65
2022/09/26 00:22:56;;;;;;;2.17;1.00;;;13.50;99.90;;;;;;5018126;28;20229;-64
2022/09/26 00:25:23;;;;;;;1.00;1.00;;;13.50;99.90;;;;;;5026208;28;20307;-65
2022/09/26 00:27:50;;;;;;;1.60;1.03;;;13.50;99.90;;;;;;5018821;28;20228;-65
2022/09/26 00:30:17;;;;;;;1.00;1.00;;;13.40;99.90;;;;;;5029924;28;20205;-65
2022/09/26 00:32:43;;;;;;;1.00;1.00;;;13.40;99.90;;;;;;5014516;28;20205;-64
2022/09/26 00:35:10;;;;;;;1.07;1.07;;;13.30;99.90;;;;;;5021000;28;20260;-65
2022/09/26 00:37:38;;;;;;;0.97;0.97;;;13.30;99.90;;;;;;5025217;28;20215;-65
2022/09/26 00:40:06;;;;;;;1.23;1.20;;;13.20;99.90;;;;;;5021010;28;20690;-65
2022/09/26 00:42:33;;;;;;;1.17;1.17;;;13.10;99.90;;;;;;5024830;28;20258;-65
2022/09/26 00:45:00;;;;;;;1.40;1.40;;;13.10;99.90;;;;;;5024345;28;20207;-65
2022/09/26 00:47:41;;;;;;;1.40;1.30;;;13.10;99.90;;;;;;5025491;28;20201;-64
2022/09/26 00:50:14;;;;;;;1.40;1.40;;;13.10;99.90;;;;;;5023551;28;20205;-65
2022/09/26 00:52:48;;;;;;;1.10;1.10;;;13.00;99.90;;;;;;5023935;28;20567;-65
2022/09/26 00:55:19;;;;;;;1.23;1.20;;;13.00;99.90;;;;;;5036009;28;20201;-65
2022/09/26 00:57:50;;;;;;;1.20;1.20;;;13.00;99.90;;;;;;5029535;28;20197;-66
2022/09/26 01:00:17;;;;;;;1.10;1.10;;;13.00;99.90;;;;;;5033412;28;20204;-66
2022/09/26 01:02:46;;;;;;;1.10;1.10;;;12.90;99.90;;;;;;5033214;28;20204;-65
2022/09/26 01:05:16;;;;;;;1.10;1.10;;;13.00;99.90;;;;;;5032706;28;20209;-65
2022/09/26 01:07:45;;;;;;;1.20;1.20;;;13.00;99.90;;;;;;5033818;28;20204;-66
2022/09/26 01:10:14;;;;;;;1.00;1.00;;;12.90;99.90;;;;;;5034496;28;20616;-66
2022/09/26 01:12:42;;;;;;;1.03;1.03;;;12.90;99.90;;;;;;5030633;28;20220;-65
2022/09/26 01:15:10;;;;;;;1.00;1.00;;;12.90;99.90;;;;;;5032621;28;20254;-64
2022/09/26 01:17:38;;;;;;;1.00;1.00;;;12.90;99.90;;;;;;5032054;28;20582;-65
2022/09/26 01:20:23;;;;;;;0.93;0.93;;;12.90;99.90;;;;;;5031895;28;20675;-65
2022/09/26 01:23:25;;;;;;;0.80;0.80;;;12.80;99.90;;;;;;5032315;28;20197;-64
2022/09/26 01:26:22;;;;;;;0.80;0.80;;;12.80;99.90;;;;;;5031953;28;20208;-64
2022/09/26 01:29:10;;;;;;;0.90;0.90;;;12.70;99.90;;;;;;5032108;28;20197;-65
2022/09/26 01:32:47;;;;;;;0.83;0.83;;;12.70;99.90;;;;;;5025667;28;20594;-65
2022/09/26 01:34:43;;;;;;;0.87;0.87;;;12.70;99.90;;;;;;5031605;28;20750;-64
2022/09/26 01:37:20;;;;;;;0.93;0.93;;;12.70;99.90;;;;;;5025138;28;20200;-64
2022/09/26 01:39:56;;;;;;;0.80;0.80;;;12.70;99.90;;;;;;5031041;28;20717;-65
2022/09/26 01:42:32;;;;;;;1.00;1.00;;;12.70;99.90;;;;;;5032068;28;20287;-65
2022/09/26 01:45:05;;;;;;;1.03;0.87;;;12.70;99.90;;;;;;5025474;28;20216;-66
2022/09/26 01:47:41;;;;;;;0.80;0.80;;;12.70;99.90;;;;;;5028775;28;20208;-65
2022/09/26 01:50:17;;;;;;;0.83;0.83;;;12.70;99.90;;;;;;5028754;28;20583;-65
2022/09/26 01:52:50;;;;;;;1.37;0.90;;;12.70;99.90;;;;;;5031487;28;20227;-65
2022/09/26 01:55:21;;;;;;;0.90;0.80;;;12.60;99.90;;;;;;5032156;28;20215;-64
2022/09/26 01:57:53;;;;;;;0.70;0.70;;;12.60;99.90;;;;;;5032781;28;20577;-63
2022/09/26 02:00:20;;;;;;;0.60;0.60;;;12.60;99.90;;;;;;5027661;28;20602;-65
2022/09/26 02:02:50;;;;;;;0.80;0.80;;;12.60;99.90;;;;;;5029778;28;20322;-64
2022/09/26 02:05:24;;;;;;;0.73;0.73;;;12.60;99.90;;;;;;5031798;28;20594;-65
2022/09/26 02:07:57;;;;;;;0.70;0.70;;;12.60;99.90;;;;;;5034068;28;20209;-66
2022/09/26 02:10:28;;;;;;;0.60;0.60;;;12.60;99.90;;;;;;5033483;28;20200;-64
2022/09/26 02:13:02;;;;;;;2.67;0.93;;;12.60;99.90;;;;;;5031958;28;20250;-65
2022/09/26 02:15:33;;;;;;;0.77;0.77;;;12.60;99.90;;;;;;5031513;28;20697;-64
2022/09/26 02:18:11;;;;;;;0.80;0.80;;;12.70;99.90;;;;;;5031652;28;20674;-64
2022/09/26 02:20:41;;;;;;;0.83;0.83;;;12.70;99.90;;;;;;5028592;28;20582;-65
2022/09/26 02:23:07;;;;;;;0.83;0.83;;;12.70;99.90;;;;;;5031161;28;20793;-65
2022/09/26 02:25:36;;;;;;;0.80;0.80;;;12.70;99.90;;;;;;5031544;28;20216;-68
2022/09/26 02:28:03;;;;;;;0.80;0.80;;;12.60;99.90;;;;;;5015968;28;20201;-64
2022/09/26 02:30:30;;;;;;;1.27;0.90;;;12.70;99.90;;;;;;5031222;28;20209;-64
2022/09/26 02:32:57;;;;;;;1.00;1.00;;;12.60;99.90;;;;;;5029999;28;20308;-65
2022/09/26 02:38:12;;;;;;;0.80;0.80;;;12.60;99.90;;;;;;5033137;28;20210;-64
2022/09/26 02:40:47;;;;;;;0.80;0.80;;;12.60;99.90;;;;;;5041545;28;20236;-66
2022/09/26 02:43:33;;;;;;;0.90;0.90;;;12.60;99.90;;;;;;5030001;28;20225;-64
2022/09/26 02:46:10;;;;;;;0.83;0.83;;;12.60;99.90;;;;;;5032053;28;20206;-64
2022/09/26 02:48:53;;;;;;;0.73;0.73;;;12.50;99.90;;;;;;5032625;28;20224;-64
2022/09/26 02:51:35;;;;;;;0.70;0.70;;;12.40;99.90;;;;;;5031422;28;20221;-65
2022/09/26 02:54:18;;;;;;;1.27;1.03;;;12.40;99.90;;;;;;5018584;28;20227;-64
2022/09/26 02:56:59;;;;;;;0.83;0.83;;;12.40;99.90;;;;;;5035173;28;20196;-65
2022/09/26 02:59:35;;;;;;;0.73;0.73;;;12.40;99.90;;;;;;5034722;28;20682;-65
2022/09/26 03:02:12;;;;;;;0.67;0.67;;;12.40;99.90;;;;;;5019027;28;20216;-65
2022/09/26 03:04:46;;;;;;;0.80;0.80;;;12.50;99.90;;;;;;5034473;28;20293;-66
2022/09/26 03:07:18;;;;;;;0.90;0.90;;;12.50;99.90;;;;;;5037030;28;20222;-64
2022/09/26 03:09:47;;;;;;;0.83;0.83;;;12.40;99.90;;;;;;5036892;28;20208;-66
2022/09/26 03:12:15;;;;;;;0.83;0.83;;;12.40;99.90;;;;;;5034755;28;20224;-65
2022/09/26 03:14:44;;;;;;;1.17;1.17;;;12.40;99.90;;;;;;5034810;28;20282;-65
2022/09/26 03:17:14;;;;;;;1.00;1.00;;;12.50;99.90;;;;;;5034883;28;20201;-65
2022/09/26 03:19:45;;;;;;;0.83;0.83;;;12.40;99.90;;;;;;5035695;28;20204;-65
2022/09/26 03:22:14;;;;;;;0.97;0.97;;;12.40;99.90;;;;;;5031442;28;20200;-65
2022/09/26 03:24:42;;;;;;;0.80;0.80;;;12.30;99.90;;;;;;5031615;28;20220;-64
2022/09/26 03:27:11;;;;;;;0.90;0.90;;;12.30;99.90;;;;;;5036293;28;20227;-65
2022/09/26 03:29:38;;;;;;;0.90;0.90;;;12.20;99.90;;;;;;5035571;28;20204;-65
2022/09/26 03:32:05;;;;;;;0.87;0.87;;;12.20;99.90;;;;;;5037804;28;20567;-66
2022/09/26 03:34:32;;;;;;;1.00;1.00;;;12.20;99.90;;;;;;5039626;28;20224;-64
2022/09/26 03:36:59;;;;;;;0.90;0.90;;;12.20;99.90;;;;;;5042346;28;20232;-65
2022/09/26 03:39:27;;;;;;;1.00;1.00;;;12.20;99.90;;;;;;5043431;28;20280;-65
2022/09/26 03:41:57;;;;;;;0.90;0.90;;;12.30;99.90;;;;;;5045570;28;20460;-64
2022/09/26 03:44:24;;;;;;;0.97;0.97;;;12.30;99.90;;;;;;5037416;28;20317;-65
2022/09/26 03:46:51;;;;;;;0.97;0.97;;;12.30;99.90;;;;;;5034550;28;20205;-64
2022/09/26 03:49:18;;;;;;;0.90;0.90;;;12.30;99.90;;;;;;5034069;28;20219;-65
2022/09/26 03:51:44;;;;;;;1.10;1.10;;;12.40;99.90;;;;;;5034465;28;20227;-64
2022/09/26 03:54:12;;;;;;;0.90;0.90;;;12.30;99.90;;;;;;5034144;28;20234;-65
2022/09/26 03:56:40;;;;;;;0.90;0.90;;;12.30;99.90;;;;;;5034113;28;20200;-65
2022/09/26 03:59:07;;;;;;;1.63;1.53;;;12.30;99.90;;;;;;5033767;28;20208;-65
2022/09/26 04:01:34;;;;;;;1.10;1.10;;;12.20;99.90;;;;;;5033982;28;20201;-66
2022/09/26 04:04:01;;;;;;;0.90;0.90;;;12.20;99.90;;;;;;5034334;28;20228;-64
2022/09/26 04:06:28;;;;;;;0.80;0.80;;;12.20;99.90;;;;;;5041494;28;20211;-65
2022/09/26 04:08:56;;;;;;;0.97;0.90;;;12.20;99.90;;;;;;5044496;28;20291;-66
2022/09/26 04:11:24;;;;;;;0.90;0.90;;;12.00;99.90;;;;;;5040971;28;20802;-66
2022/09/26 04:13:52;;;;;;;1.00;1.00;;;12.00;99.90;;;;;;5033275;28;20232;-66
2022/09/26 04:16:20;;;;;;;0.77;0.77;;;12.00;99.90;;;;;;5033645;28;20255;-66
2022/09/26 04:18:46;;;;;;;0.90;0.90;;;11.90;99.90;;;;;;5033481;28;20204;-65
2022/09/26 04:21:14;;;;;;;1.00;1.00;;;11.80;99.90;;;;;;5033293;28;20681;-65
2022/09/26 04:23:42;;;;;;;1.07;1.00;;;11.80;99.90;;;;;;5033110;28;20227;-65
2022/09/26 04:26:11;;;;;;;0.90;0.90;;;11.80;99.90;;;;;;5033305;28;20239;-64
2022/09/26 04:28:38;;;;;;;1.00;1.00;;;11.70;99.90;;;;;;5033460;28;20209;-65
2022/09/26 04:31:08;;;;;;;0.97;0.97;;;11.70;99.90;;;;;;5033467;28;20204;-65
2022/09/26 04:33:35;;;;;;;1.00;1.00;;;11.60;99.90;;;;;;5033106;28;20233;-65
2022/09/26 04:36:03;;;;;;;1.00;1.00;;;11.60;99.90;;;;;;5032991;28;20205;-66
2022/09/26 04:38:32;;;;;;;1.00;1.00;;;11.70;99.90;;;;;;5024215;28;20215;-66
2022/09/26 04:41:03;;;;;;;1.10;1.10;;;11.70;99.90;;;;;;5023477;28;20262;-67
2022/09/26 04:43:30;;;;;;;0.97;0.97;;;11.70;99.90;;;;;;5022785;28;20225;-66
2022/09/26 04:45:57;;;;;;;1.00;1.00;;;11.70;99.90;;;;;;5025997;28;20225;-65
2022/09/26 04:48:26;;;;;;;1.20;1.20;;;11.60;99.90;;;;;;5027698;28;20280;-64
2022/09/26 04:50:52;;;;;;;1.30;1.30;;;11.70;99.90;;;;;;5031367;28;20213;-65
2022/09/26 04:53:20;;;;;;;1.20;1.03;;;11.70;99.90;;;;;;5027175;28;20297;-66
2022/09/26 04:55:47;;;;;;;1.03;1.03;;;11.60;99.90;;;;;;5032794;28;20265;-65
2022/09/26 04:58:15;;;;;;;1.27;1.20;;;11.60;99.90;;;;;;5016699;28;20207;-65
2022/09/26 05:00:44;;;;;;;1.00;1.00;;;11.60;99.90;;;;;;5025111;28;20292;-64
2022/09/26 05:03:12;;;;;;;0.90;0.90;;;11.60;99.90;;;;;;5020974;28;20316;-65
2022/09/26 05:05:40;;;;;;;0.80;0.80;;;11.60;99.90;;;;;;5021331;28;20205;-64
2022/09/26 05:08:08;;;;;;;1.00;1.00;;;11.50;99.90;;;;;;5027264;28;20212;-64
2022/09/26 05:10:36;;;;;;;0.90;0.90;;;11.40;99.90;;;;;;5040391;28;20200;-66
2022/09/26 05:13:02;;;;;;;1.30;0.90;;;11.20;99.90;;;;;;5032518;28;20296;-65
2022/09/26 05:15:30;;;;;;;1.00;1.00;;;11.20;99.90;;;;;;5042740;28;20215;-66
2022/09/26 05:17:58;;;;;;;0.90;0.90;;;11.10;99.90;;;;;;5037809;28;20205;-66
2022/09/26 05:20:28;;;;;;;1.07;1.07;;;11.10;99.90;;;;;;5024515;28;20205;-66
2022/09/26 05:22:58;;;;;;;0.80;0.80;;;11.10;99.90;;;;;;5026533;28;20204;-66
2022/09/26 05:28:10;;;;;;;0.90;0.90;;;11.20;99.90;;;;;;5019473;28;20228;-66
2022/09/26 05:30:37;;;;;;;1.13;1.13;;;11.30;99.90;;;;;;5011219;28;20212;-65
2022/09/26 05:33:04;;;;;;;1.00;1.00;;;11.10;99.90;;;;;;5010863;28;20320;-66
2022/09/26 05:35:33;;;;;;;1.10;1.10;;;11.40;99.90;;;;;;5015334;28;20224;-65
2022/09/26 05:38:03;;;;;;;1.17;1.17;;;11.40;99.90;;;;;;5019316;28;20201;-67
2022/09/26 05:43:15;;;;;;;1.10;1.10;;;11.50;99.90;;;;;;5023395;28;20230;-64
2022/09/26 05:45:42;;;;;;;1.10;1.10;;;11.60;99.90;;;;;;5018912;28;20657;-65
2022/09/26 05:48:09;;;;;;;1.23;1.23;;;11.60;99.90;;;;;;5014211;28;20668;-67
2022/09/26 05:50:36;;;;;;;0.90;0.90;;;11.70;99.90;;;;;;5019132;28;20208;-65
2022/09/26 05:53:04;;;;;;;1.17;1.07;;;11.70;99.90;;;;;;5011519;28;20255;-67
2022/09/26 05:55:31;;;;;;;0.90;0.90;;;11.80;99.90;;;;;;5012901;28;20201;-67
2022/09/26 05:57:58;;;;;;;0.90;0.90;;;11.80;99.90;;;;;;5020474;28;20659;-67
2022/09/26 06:00:25;;;;;;;0.90;0.90;;;11.80;99.90;;;;;;5029626;28;20226;-66
2022/09/26 06:02:55;;;;;;;1.10;1.10;;;11.80;99.90;;;;;;5033596;28;20232;-67
2022/09/26 06:05:23;;;;;;;0.90;0.90;;;11.80;99.90;;;;;;5031594;28;20211;-66
2022/09/26 06:07:50;;;;;;;1.30;1.20;;;11.90;99.90;;;;;;5030674;28;20240;-66
2022/09/26 06:10:19;;;;;;;0.80;0.80;;;12.00;99.90;;;;;;5027197;28;20516;-66
2022/09/26 06:12:46;;;;;;;1.13;1.10;;;12.00;99.90;;;;;;5026398;28;20726;-66
2022/09/26 06:15:14;;;;;;;0.90;0.90;;;12.00;99.90;;;;;;5031924;28;20214;-67
2022/09/26 06:17:40;;;;;;;1.87;1.00;;;12.00;99.90;;;;;;5023450;28;20248;-67
2022/09/26 06:20:08;;;;;;;0.80;0.80;;;12.00;99.90;;;;;;5015301;28;20573;-65
2022/09/26 06:22:39;;;;;;;1.00;1.00;;;12.00;99.90;;;;;;5026560;28;20271;-65
2022/09/26 06:25:07;;;;;;;1.20;1.10;;;12.10;99.90;;;;;;5016770;28;20204;-66
2022/09/26 06:27:37;;;;;;;1.10;1.10;;;12.10;99.90;;;;;;5021515;28;20205;-66
2022/09/26 06:30:05;;;;;;;1.20;1.20;;;12.10;99.90;;;;;;5015089;28;20212;-65
2022/09/26 06:32:32;;;;;;;1.20;1.20;;;12.20;99.90;;;;;;5017772;28;20227;-66
2022/09/26 06:34:59;;;;;;;1.10;1.10;;;12.20;99.90;;;;;;5022332;28;20246;-67
2022/09/26 06:37:25;;;;;;;1.33;1.20;;;12.30;99.90;;;;;;5029404;28;20671;-66
2022/09/26 06:39:52;;;;;;;1.10;1.10;;;12.40;99.90;;;;;;5022345;28;20289;-67
2022/09/26 06:42:19;;;;;;;1.00;1.00;;;12.30;99.90;;;;;;5027225;28;20269;-66
2022/09/26 06:44:47;;;;;;;1.33;1.20;;;12.30;99.90;;;;;;5019871;28;20237;-66
2022/09/26 06:47:14;;;;;;;1.10;1.10;;;12.30;99.90;;;;;;5021514;28;20197;-65
2022/09/26 06:49:41;;;;;;;1.27;1.17;;;12.30;99.90;;;;;;5017880;28;20586;-68
2022/09/26 06:52:10;;;;;;;0.83;0.83;;;12.30;99.90;;;;;;5016097;28;20252;-66
2022/09/26 06:54:36;;;;;;;0.83;0.83;;;12.30;99.90;;;;;;5016177;28;20299;-66
2022/09/26 06:57:03;;;;;;;0.83;0.83;;;12.30;99.90;;;;;;5016610;28;20262;-66
2022/09/26 06:59:30;;;;;;;0.90;0.90;;;12.30;99.90;;;;;;5016698;28;20635;-65
2022/09/26 07:01:58;;;;;;;0.90;0.90;;;12.40;99.90;;;;;;5018746;28;20201;-66
2022/09/26 07:04:26;;;;;;;0.80;0.80;;;12.40;99.90;;;;;;5018037;28;20217;-66
2022/09/26 07:06:53;;;;;;;0.90;0.90;;;12.50;99.90;;;;;;5016521;28;20571;-66
2022/09/26 07:09:20;;;;;;;0.80;0.80;;;12.50;99.90;;;;;;5015768;28;20565;-66
2022/09/26 07:11:47;;;;;;;0.80;0.80;;;12.50;99.90;;;;;;5017989;28;20675;-66
2022/09/26 07:14:15;;;;;;;0.97;0.90;;;12.60;99.90;;;;;;5016467;28;20225;-67
2022/09/26 07:16:43;;;;;;;0.90;0.90;;;12.80;99.90;;;;;;5014906;28;20367;-66
2022/09/26 07:19:12;;;;;;;0.73;0.73;;;13.00;99.90;;;;;;5014613;28;20240;-65
2022/09/26 07:21:39;;;;;;;0.90;0.90;;;13.20;99.90;;;;;;5015504;28;20205;-66
2022/09/26 07:24:06;;;;;;;0.90;0.90;;;13.30;99.90;;;;;;5014010;28;20225;-67
2022/09/26 07:26:33;;;;;;;0.80;0.80;;;13.40;99.90;;;;;;5016865;28;20231;-67
2022/09/26 07:29:00;;;;;;;0.80;0.80;;;13.50;99.90;;;;;;5023497;28;20207;-65
2022/09/26 07:31:28;;;;;;;1.00;1.00;;;13.60;99.90;;;;;;5023468;28;20212;-65
2022/09/26 07:33:55;;;;;;;1.00;1.00;;;13.60;99.90;;;;;;5023879;28;20228;-65
2022/09/26 07:36:23;;;;;;;0.90;0.90;;;13.60;99.90;;;;;;5020325;28;20570;-65
2022/09/26 07:38:50;;;;;;;1.03;0.80;;;13.70;99.90;;;;;;5017560;28;20205;-65
2022/09/26 07:41:18;;;;;;;1.10;0.90;;;13.70;99.90;;;;;;5016380;28;20229;-65
2022/09/26 07:43:44;;;;;;;0.97;0.97;;;13.80;99.90;;;;;;5016303;28;20218;-67
2022/09/26 07:51:41;;;;;;;1.33;1.27;;;13.90;99.90;;;;;;5014126;28;20201;-67
2022/09/26 07:54:08;;;;;;;0.80;0.80;;;13.90;99.90;;;;;;5015641;28;20704;-66
2022/09/26 07:56:35;;;;;;;1.43;0.97;;;13.90;99.90;;;;;;5016501;28;20201;-65
2022/09/26 07:59:04;;;;;;;0.87;0.87;;;13.90;99.90;;;;;;5016068;28;20198;-66
2022/09/26 08:01:31;;;;;;;0.90;0.90;;;13.80;99.90;;;;;;5015800;28;20205;-66
2022/09/26 08:03:58;;;;;;;0.90;0.90;;;14.00;99.90;;;;;;5017317;28;20224;-65
2022/09/26 08:06:26;;;;;;;0.80;0.80;;;14.00;99.90;;;;;;5015062;28;20299;-67
2022/09/26 08:08:57;;;;;;;1.13;1.07;;;14.30;99.90;;;;;;5016450;28;20288;-65
2022/09/26 08:11:24;;;;;;;0.80;0.80;;;14.60;99.90;;;;;;5016536;28;20212;-66
2022/09/26 08:13:51;;;;;;;1.00;1.00;;;14.80;99.90;;;;;;5016463;28;20609;-67
2022/09/26 08:16:21;;;;;;;1.30;1.20;;;14.90;99.90;;;;;;5016312;28;20577;-66
2022/09/26 08:18:48;;;;;;;0.90;0.90;;;15.30;99.90;;;;;;5015557;28;20288;-65
2022/09/26 08:21:15;;;;;;;1.13;1.10;;;15.40;99.90;;;;;;5016678;28;20201;-67
2022/09/26 08:23:42;;;;;;;1.10;1.10;;;15.60;99.90;;;;;;5017312;28;20247;-66
2022/09/26 08:26:11;;;;;;;1.00;1.00;;;15.70;99.90;;;;;;5015171;28;20300;-66
2022/09/26 08:28:38;;;;;;;0.90;0.90;;;16.00;99.90;;;;;;5014007;28;20197;-65
2022/09/26 08:31:07;;;;;;;0.80;0.80;;;16.00;99.90;;;;;;5013825;28;20205;-66
2022/09/26 08:33:36;;;;;;;0.77;0.77;;;16.00;99.90;;;;;;5010517;28;20255;-65
2022/09/26 08:36:04;;;;;;;0.80;0.80;;;15.80;99.90;;;;;;5007635;28;20220;-66
2022/09/26 08:38:31;;;;;;;0.70;0.70;;;15.80;99.90;;;;;;5024158;28;20197;-64
2022/09/26 08:41:05;;;;;;;0.90;0.90;;;15.70;99.90;;;;;;5027646;28;20596;-66
2022/09/26 08:43:44;;;;;;;1.00;1.00;;;15.80;99.90;;;;;;5022944;28;20228;-66
2022/09/26 08:46:41;;;;;;;0.70;0.70;;;15.90;99.90;;;;;;5023748;28;20570;-66
2022/09/26 08:49:31;;;;;;;0.50;0.50;;;15.80;99.90;;;;;;5021969;28;20196;-65
2022/09/26 08:52:01;;;;;;;0.90;0.90;;;15.80;99.90;;;;;;5015235;28;20202;-65
2022/09/26 08:54:36;;;;;;;0.70;0.70;;;16.00;99.90;;;;;;5022783;28;20234;-66
2022/09/26 08:57:07;;;;;;;0.80;0.80;;;16.10;99.90;;;;;;5021535;28;20235;-65
2022/09/26 08:59:40;;;;;;;0.77;0.77;;;16.40;99.90;;;;;;5023338;28;20232;-66
2022/09/26 09:02:20;;;;;;;0.80;0.80;;;16.50;99.90;;;;;;5021846;28;20683;-65
2022/09/26 09:04:56;;;;;;;0.70;0.70;;;16.70;99.90;;;;;;5016038;28;20247;-66
2022/09/26 09:07:24;;;;;;;0.80;0.80;;;16.70;99.90;;;;;;5003871;28;20248;-65
2022/09/26 09:09:55;;;;;;;0.70;0.70;;;16.70;99.90;;;;;;5007890;28;20229;-66
2022/09/26 09:12:34;;;;;;;1.00;0.80;;;16.70;99.90;;;;;;5009786;28;20743;-64
2022/09/26 09:15:16;;;;;;;0.73;0.73;;;16.70;99.90;;;;;;5016208;28;20606;-64
2022/09/26 09:17:52;;;;;;;0.97;0.70;;;16.80;99.90;;;;;;5021334;28;20207;-65
2022/09/26 09:20:27;;;;;;;0.80;0.80;;;16.90;99.90;;;;;;5013721;28;20615;-66
2022/09/26 09:23:16;;;;;;;0.70;0.70;;;17.10;99.90;;;;;;5015993;28;20633;-65
2022/09/26 09:25:49;;;;;;;0.70;0.70;;;17.50;99.90;;;;;;5018179;28;20205;-66
2022/09/26 09:28:31;;;;;;;0.70;0.70;;;17.70;99.90;;;;;;5014208;28;20205;-66
2022/09/26 09:31:01;;;;;;;0.63;0.63;;;18.00;99.90;;;;;;5022609;28;20208;-64
2022/09/26 09:33:33;;;;;;;1.00;1.00;;;18.20;99.90;;;;;;5012551;28;20217;-66
2022/09/26 09:36:06;;;;;;;0.60;0.60;;;18.40;99.90;;;;;;5028532;28;20232;-64
2022/09/26 09:38:36;;;;;;;0.80;0.80;;;18.40;99.90;;;;;;5017656;28;20220;-65
2022/09/26 09:41:07;;;;;;;0.80;0.80;;;18.30;99.90;;;;;;5022047;28;20231;-65
2022/09/26 09:43:40;;;;;;;0.87;0.87;;;18.20;99.90;;;;;;5016373;28;20714;-66
2022/09/26 09:46:15;;;;;;;0.80;0.80;;;18.00;99.90;;;;;;5015144;28;20227;-65
2022/09/26 09:48:43;;;;;;;0.90;0.90;;;18.10;99.90;;;;;;5013011;28;20288;-66
2022/09/26 09:51:26;;;;;;;0.80;0.80;;;18.10;99.90;;;;;;5011746;28;20205;-65
2022/09/26 09:54:18;;;;;;;0.67;0.67;;;18.00;99.90;;;;;;5010210;28;20319;-66
2022/09/26 09:57:01;;;;;;;0.70;0.70;;;17.90;99.90;;;;;;5008526;28;20271;-65
2022/09/26 09:59:59;;;;;;;0.80;0.80;;;17.80;99.90;;;;;;5012352;28;20201;-65
2022/09/26 10:02:39;;;;;;;0.70;0.70;;;17.70;99.90;;;;;;5008463;28;20205;-65
2022/09/26 10:05:21;;;;;;;0.80;0.80;;;17.50;99.90;;;;;;5003569;28;20264;-66
2022/09/26 10:07:48;;;;;;;0.70;0.70;;;17.50;99.90;;;;;;5023448;28;20204;-64
2022/09/26 10:10:20;;;;;;;0.80;0.80;;;17.40;99.90;;;;;;5015062;28;20205;-65
2022/09/26 10:12:50;;;;;;;0.80;0.80;;;17.40;99.90;;;;;;5014993;28;20224;-65
2022/09/26 10:15:19;;;;;;;0.63;0.63;;;17.30;99.90;;;;;;5008726;28;20283;-65
2022/09/26 10:18:02;;;;;;;0.80;0.80;;;17.30;99.90;;;;;;5016679;28;20198;-64
2022/09/26 10:20:40;;;;;;;0.80;0.80;;;17.20;99.90;;;;;;5004125;28;20208;-65
2022/09/26 10:23:27;;;;;;;0.77;0.77;;;17.10;99.90;;;;;;5011915;28;20285;-66
2022/09/26 10:25:59;;;;;;;0.63;0.63;;;17.00;99.90;;;;;;5009026;28;20234;-65
2022/09/26 10:28:30;;;;;;;0.70;0.70;;;16.90;99.90;;;;;;5007590;28;20206;-65
2022/09/26 10:31:03;;;;;;;0.80;0.80;;;16.90;99.90;;;;;;5005012;28;20197;-64
2022/09/26 10:33:34;;;;;;;0.80;0.80;;;17.20;99.90;;;;;;5006017;28;20256;-65
2022/09/26 10:36:09;;;;;;;0.53;0.53;;;17.30;99.90;;;;;;5012799;28;20209;-65
2022/09/26 10:41:40;;;;;;;0.90;0.90;;;17.30;99.90;;;;;;5011367;28;20754;-65
2022/09/26 10:44:22;;;;;;;0.70;0.70;;;17.70;99.90;;;;;;5009620;28;20304;-65
2022/09/26 10:46:52;;;;;;;0.60;0.60;;;18.00;99.90;;;;;;5021715;28;20232;-65
2022/09/26 10:49:30;;;;;;;0.70;0.70;;;18.20;99.90;;;;;;5020926;28;20211;-64
2022/09/26 10:52:03;;;;;;;0.70;0.70;;;18.20;99.90;;;;;;5023591;28;20267;-65
2022/09/26 10:54:40;;;;;;;0.70;0.70;;;18.10;99.90;;;;;;5004006;28;20230;-64
2022/09/26 10:57:09;;;;;;;1.70;0.80;;;17.90;99.90;;;;;;5013158;28;20223;-65
2022/09/26 10:59:40;;;;;;;0.80;0.80;;;17.70;99.90;;;;;;5014087;28;20209;-65
2022/09/26 11:02:18;;;;;;;0.60;0.60;;;17.60;99.90;;;;;;5013007;28;20223;-65
2022/09/26 11:07:37;;;;;;;0.83;0.83;;;17.60;99.90;;;;;;5015677;28;20256;-64
2022/09/26 11:10:09;;;;;;;0.60;0.60;;;17.50;99.90;;;;;;5012682;28;20206;-65
2022/09/26 11:12:38;;;;;;;0.50;0.50;;;17.50;99.90;;;;;;5015148;28;20209;-65
2022/09/26 11:15:08;;;;;;;0.57;0.57;;;17.40;99.90;;;;;;5013483;28;20599;-68
2022/09/26 11:17:46;;;;;;;0.70;0.70;;;17.40;99.90;;;;;;5024949;28;20209;-65
2022/09/26 11:20:26;;;;;;;0.60;0.60;;;17.20;99.90;;;;;;5021074;28;20651;-65
2022/09/26 11:23:02;;;;;;;0.70;0.70;;;17.20;99.90;;;;;;5026509;28;20201;-64
2022/09/26 11:25:32;;;;;;;0.67;0.67;;;17.30;99.90;;;;;;5020297;28;20568;-65
2022/09/26 11:28:04;;;;;;;0.80;0.80;;;17.20;99.90;;;;;;5028743;28;20247;-65
2022/09/26 11:30:37;;;;;;;0.53;0.53;;;17.20;99.90;;;;;;5024673;28;20216;-66
2022/09/26 11:33:11;;;;;;;0.80;0.80;;;17.30;99.90;;;;;;5013389;28;20236;-65
2022/09/26 11:35:48;;;;;;;0.77;0.77;;;17.30;99.90;;;;;;5023776;28;20583;-65
2022/09/26 11:38:25;;;;;;;0.60;0.60;;;17.40;99.90;;;;;;5015074;28;20648;-65
2022/09/26 11:41:06;;;;;;;0.97;0.97;;;17.40;99.90;;;;;;5021583;28;20668;-65
2022/09/26 11:43:51;;;;;;;0.80;0.80;;;17.50;99.90;;;;;;5020475;28;20225;-65
2022/09/26 11:46:34;;;;;;;0.80;0.80;;;17.30;99.90;;;;;;5018984;28;20582;-64
2022/09/26 11:49:16;;;;;;;0.70;0.70;;;17.30;99.90;;;;;;5019269;28;20211;-65
2022/09/26 11:51:59;;;;;;;0.80;0.80;;;17.40;99.90;;;;;;5017844;28;20248;-66
2022/09/26 11:54:48;;;;;;;0.80;0.80;;;17.40;99.90;;;;;;5015953;28;20229;-64
2022/09/26 11:57:33;;;;;;;0.60;0.60;;;17.40;99.90;;;;;;5018811;28;20219;-65
2022/09/26 12:00:08;;;;;;;0.80;0.80;;;17.30;99.90;;;;;;5021892;28;20259;-65
2022/09/26 12:02:53;;;;;;;0.93;0.93;;;17.20;99.90;;;;;;5020436;28;20261;-64
2022/09/26 12:05:25;;;;;;;0.70;0.70;;;17.10;99.90;;;;;;5024128;28;20231;-64
2022/09/26 12:08:07;;;;;;;0.60;0.60;;;17.20;99.90;;;;;;5021355;28;20198;-65
2022/09/26 12:10:40;;;;;;;0.70;0.70;;;17.30;99.90;;;;;;5029900;28;20200;-65
2022/09/26 12:13:23;;;;;;;0.70;0.70;;;17.30;99.90;;;;;;5018710;28;20260;-64
2022/09/26 12:15:58;;;;;;;0.70;0.70;;;17.30;99.90;;;;;;5020658;28;20643;-65
2022/09/26 12:18:34;;;;;;;0.50;0.50;;;17.30;99.90;;;;;;5033291;28;20204;-64
2022/09/26 12:21:12;;;;;;;0.70;0.70;;;17.40;99.90;;;;;;5024028;28;20193;-65
2022/09/26 12:23:47;;;;;;;0.80;0.50;;;17.70;99.90;;;;;;5025537;28;20236;-65
2022/09/26 12:26:20;;;;;;;0.57;0.57;;;17.80;99.90;;;;;;5024346;28;20200;-64
2022/09/26 12:29:13;;;;;;;0.57;0.57;;;17.80;99.90;;;;;;5023984;28;20245;-64
2022/09/26 12:32:01;;;;;;;0.50;0.50;;;17.80;99.90;;;;;;5022580;28;20205;-64
2022/09/26 12:34:43;;;;;;;0.37;0.37;;;17.70;99.90;;;;;;5024145;28;20221;-65
2022/09/26 12:37:38;;;;;;;0.60;0.60;;;17.70;99.90;;;;;;5011851;28;20587;-65
2022/09/26 12:40:27;;;;;;;0.40;0.40;;;17.50;99.90;;;;;;5013341;28;20260;-64
2022/09/26 12:43:18;;;;;;;0.60;0.60;;;17.20;99.90;;;;;;5011731;28;20197;-64
2022/09/26 12:46:01;;;;;;;0.60;0.60;;;17.10;99.90;;;;;;5021464;28;20198;-64
2022/09/26 12:48:48;;;;;;;0.50;0.50;;;17.00;99.90;;;;;;5020914;28;20255;-64
2022/09/26 12:51:22;;;;;;;0.40;0.40;;;17.10;99.90;;;;;;5026525;28;20200;-64
2022/09/26 12:54:35;;;;;;;0.50;0.50;;;17.10;99.90;;;;;;5036983;28;20315;-65
2022/09/26 12:57:13;;;;;;;0.57;0.57;;;17.20;99.90;;;;;;5027878;28;20205;-65
2022/09/26 13:00:09;;;;;;;0.50;0.50;;;17.40;99.90;;;;;;5015628;28;20198;-65
2022/09/26 13:03:04;;;;;;;0.60;0.60;;;17.50;99.90;;;;;;5023487;28;20300;-64
2022/09/26 13:05:44;;;;;;;0.60;0.60;;;17.50;99.90;;;;;;5028564;28;20197;-65
2022/09/26 13:08:21;;;;;;;0.70;0.70;;;17.40;99.90;;;;;;5022453;28;20208;-65
2022/09/26 13:11:03;;;;;;;0.70;0.70;;;17.50;99.90;;;;;;5034083;28;20728;-65
2022/09/26 13:14:07;;;;;;;0.50;0.50;;;17.60;99.90;;;;;;5035484;28;20380;-65
2022/09/26 13:16:45;;;;;;;0.60;0.60;;;17.70;99.90;;;;;;5039245;28;20215;-63
2022/09/26 13:19:22;;;;;;;0.60;0.60;;;17.80;99.90;;;;;;5043124;28;20284;-64
2022/09/26 13:21:54;;;;;;;0.63;0.63;;;17.60;99.90;;;;;;5044372;28;20209;-65
2022/09/26 13:24:24;;;;;;;0.80;0.80;;;17.50;99.90;;;;;;5042669;28;20244;-64
2022/09/26 13:26:59;;;;;;;0.43;0.43;;;17.50;99.90;;;;;;5041868;28;20212;-66
2022/09/26 13:29:36;;;;;;;1.17;0.70;;;17.60;99.90;;;;;;5028954;28;20210;-65
2022/09/26 13:32:13;;;;;;;0.57;0.57;;;17.70;99.90;;;;;;5022242;28;20713;-65
2022/09/26 13:34:44;;;;;;;0.70;0.70;;;17.80;99.90;;;;;;5014464;28;20226;-66